createdAt,value
2023-03-10T00:01:20.883Z,1.17
2023-03-10T00:03:50.946Z,1.30
2023-03-10T00:06:22.370Z,1.23
2023-03-10T00:08:50.671Z,1.20
2023-03-10T00:11:19.562Z,1.03
2023-03-10T00:13:47.892Z,1.00
2023-03-10T00:16:20.917Z,1.30
2023-03-10T00:18:50.829Z,1.23
2023-03-10T00:21:21.836Z,1.07
2023-03-10T00:23:49.967Z,1.10
2023-03-10T00:26:21.386Z,1.03
2023-03-10T00:28:51.074Z,1.30
2023-03-10T00:31:21.687Z,1.23
2023-03-10T00:33:52.783Z,1.10
2023-03-10T00:36:24.019Z,1.13
2023-03-10T00:38:53.576Z,0.83
2023-03-10T00:41:24.621Z,0.90
2023-03-10T00:43:52.862Z,1.10
2023-03-10T00:46:21.450Z,1.30
2023-03-10T00:48:50.996Z,1.30
2023-03-10T00:51:20.410Z,1.00
2023-03-10T00:53:49.554Z,1.20
2023-03-10T00:56:21.308Z,0.93
2023-03-10T00:58:54.042Z,0.90
2023-03-10T01:01:25.476Z,0.93
2023-03-10T01:03:57.599Z,0.97
2023-03-10T01:06:26.781Z,1.80
2023-03-10T01:08:55.402Z,1.20
2023-03-10T01:11:27.525Z,1.00
2023-03-10T01:13:58.264Z,1.10
2023-03-10T01:16:27.547Z,1.10
2023-03-10T01:18:58.728Z,1.00
2023-03-10T01:21:31.774Z,1.20
2023-03-10T01:24:00.850Z,1.07
2023-03-10T01:26:30.087Z,0.90
2023-03-10T01:28:58.237Z,0.80
2023-03-10T01:31:26.554Z,1.30
2023-03-10T01:33:54.988Z,1.10
2023-03-10T01:36:27.594Z,0.90
2023-03-10T01:38:57.083Z,1.03
2023-03-10T01:41:25.819Z,0.87
2023-03-10T01:43:56.106Z,0.93
2023-03-10T01:46:46.736Z,0.83
2023-03-10T01:49:32.094Z,0.70
2023-03-10T01:52:08.096Z,0.70
2023-03-10T01:54:46.351Z,0.93
2023-03-10T01:57:16.752Z,0.60
2023-03-10T01:59:45.507Z,0.60
2023-03-10T02:02:14.064Z,0.77
2023-03-10T02:04:48.570Z,0.97
2023-03-10T02:07:28.868Z,0.57
2023-03-10T02:09:57.706Z,0.70
2023-03-10T02:12:26.164Z,0.53
2023-03-10T02:14:55.207Z,0.50
2023-03-10T02:17:28.394Z,0.60
2023-03-10T02:20:27.224Z,0.50
2023-03-10T02:22:57.002Z,0.57
2023-03-10T02:25:40.035Z,0.40
2023-03-10T02:28:09.898Z,0.80
2023-03-10T02:30:41.636Z,0.43
2023-03-10T02:33:14.713Z,0.70
2023-03-10T02:35:42.903Z,0.70
2023-03-10T02:38:14.970Z,0.50
2023-03-10T02:40:47.089Z,0.40
2023-03-10T02:43:31.493Z,0.43
2023-03-10T02:46:14.591Z,0.50
2023-03-10T02:48:44.868Z,0.40
2023-03-10T02:51:25.478Z,0.60
2023-03-10T02:53:55.006Z,0.27
2023-03-10T02:56:24.552Z,0.50
2023-03-10T02:58:54.238Z,0.40
2023-03-10T03:01:22.401Z,0.60
2023-03-10T03:03:50.680Z,0.37
2023-03-10T03:06:18.794Z,0.30
2023-03-10T03:08:47.528Z,0.33
2023-03-10T03:11:19.042Z,0.20
2023-03-10T03:13:47.322Z,0.60
2023-03-10T03:16:16.942Z,0.30
2023-03-10T03:18:46.863Z,0.40
2023-03-10T03:21:18.579Z,0.30
2023-03-10T03:23:48.691Z,0.40
2023-03-10T03:26:21.831Z,0.53
2023-03-10T03:28:52.202Z,0.60
2023-03-10T03:31:27.235Z,0.30
2023-03-10T03:34:16.826Z,0.40
2023-03-10T03:36:46.699Z,0.37
2023-03-10T03:39:17.828Z,0.50
2023-03-10T03:41:53.136Z,0.30
2023-03-10T03:44:21.926Z,0.40
2023-03-10T03:46:52.619Z,0.47
2023-03-10T03:49:21.945Z,0.40
2023-03-10T03:51:50.653Z,0.63
2023-03-10T03:54:19.213Z,0.50
2023-03-10T03:56:47.862Z,0.33
2023-03-10T03:59:17.314Z,0.50
2023-03-10T04:01:45.794Z,0.40
2023-03-10T04:04:16.465Z,0.40
2023-03-10T04:06:44.758Z,0.60
2023-03-10T04:09:13.751Z,0.30
2023-03-10T04:11:42.021Z,0.60
2023-03-10T04:14:10.384Z,0.50
2023-03-10T04:16:38.510Z,0.30
2023-03-10T04:19:08.032Z,0.40
2023-03-10T04:21:41.759Z,0.60
2023-03-10T04:24:10.278Z,0.47
2023-03-10T04:26:38.521Z,0.40
2023-03-10T04:29:07.103Z,0.50
2023-03-10T04:31:38.047Z,0.40
2023-03-10T04:34:08.059Z,0.43
2023-03-10T04:36:36.381Z,0.10
2023-03-10T04:39:07.459Z,0.30
2023-03-10T04:41:35.728Z,0.20
2023-03-10T04:44:04.028Z,0.27
2023-03-10T04:46:33.828Z,0.37
2023-03-10T04:49:03.209Z,0.30
2023-03-10T04:51:31.373Z,0.63
2023-03-10T04:54:00.279Z,0.50
2023-03-10T04:56:32.659Z,0.63
2023-03-10T04:59:00.770Z,0.40
2023-03-10T05:01:32.909Z,0.50
2023-03-10T05:04:05.775Z,0.60
2023-03-10T05:06:35.368Z,0.40
2023-03-10T05:09:10.315Z,1.07
2023-03-10T05:11:39.804Z,0.40
2023-03-10T05:14:07.845Z,0.63
2023-03-10T05:16:36.026Z,0.43
2023-03-10T05:19:04.311Z,0.53
2023-03-10T05:21:35.619Z,0.40
2023-03-10T05:24:05.753Z,0.53
2023-03-10T05:26:34.966Z,0.40
2023-03-10T05:29:05.100Z,0.93
2023-03-10T05:31:45.011Z,0.53
2023-03-10T05:34:19.157Z,0.40
2023-03-10T05:36:49.202Z,0.40
2023-03-10T05:39:18.407Z,0.40
2023-03-10T05:41:50.473Z,0.80
2023-03-10T05:44:20.142Z,0.70
2023-03-10T05:46:48.212Z,0.63
2023-03-10T05:49:16.749Z,0.70
2023-03-10T05:51:45.760Z,0.70
2023-03-10T05:54:16.172Z,0.80
2023-03-10T05:56:44.656Z,0.70
2023-03-10T05:59:12.697Z,1.20
2023-03-10T06:01:42.378Z,0.80
2023-03-10T06:04:13.417Z,1.00
2023-03-10T06:06:41.797Z,1.00
2023-03-10T06:09:09.884Z,1.07
2023-03-10T06:11:38.298Z,0.80
2023-03-10T06:14:06.925Z,0.60
2023-03-10T06:16:35.682Z,1.07
2023-03-10T06:19:05.150Z,0.80
2023-03-10T06:21:35.501Z,0.87
2023-03-10T06:24:04.092Z,0.70
2023-03-10T06:26:32.282Z,0.57
2023-03-10T06:29:00.402Z,0.50
2023-03-10T06:31:29.738Z,1.13
2023-03-10T06:33:59.031Z,0.60
2023-03-10T06:36:31.729Z,0.20
2023-03-10T06:39:00.137Z,0.30
2023-03-10T06:41:28.935Z,0.40
2023-03-10T06:43:57.021Z,0.33
2023-03-10T06:46:25.589Z,0.20
2023-03-10T06:48:53.727Z,0.20
2023-03-10T06:51:23.800Z,0.43
2023-03-10T06:53:55.066Z,0.20
2023-03-10T06:56:23.902Z,0.13
2023-03-10T06:58:52.260Z,0.23
2023-03-10T07:01:28.462Z,0.20
2023-03-10T07:03:57.318Z,0.37
2023-03-10T07:06:25.931Z,0.30
2023-03-10T07:08:55.996Z,0.40
2023-03-10T07:11:26.128Z,0.10
2023-03-10T07:13:54.891Z,0.30
2023-03-10T07:16:23.527Z,0.20
2023-03-10T07:18:51.832Z,0.13
2023-03-10T07:21:22.540Z,0.20
2023-03-10T07:23:50.809Z,0.17
2023-03-10T07:26:23.786Z,0.30
2023-03-10T07:28:54.248Z,0.37
2023-03-10T07:31:22.462Z,0.43
2023-03-10T07:33:50.910Z,0.30
2023-03-10T07:36:20.675Z,0.37
2023-03-10T07:38:49.036Z,0.40
2023-03-10T07:41:21.918Z,0.30
2023-03-10T07:43:54.272Z,0.40
2023-03-10T07:46:23.182Z,0.27
2023-03-10T07:48:52.644Z,0.30
2023-03-10T07:51:21.086Z,0.53
2023-03-10T07:53:49.216Z,0.43
2023-03-10T07:56:17.353Z,0.37
2023-03-10T07:58:47.002Z,0.50
2023-03-10T08:01:17.934Z,0.40
2023-03-10T08:03:46.931Z,0.50
2023-03-10T08:06:20.728Z,0.10
2023-03-10T08:08:49.187Z,0.37
2023-03-10T08:11:18.170Z,1.10
2023-03-10T08:13:48.389Z,0.60
2023-03-10T08:16:17.593Z,0.37
2023-03-10T08:18:46.318Z,0.77
2023-03-10T08:21:14.557Z,0.80
2023-03-10T08:23:42.795Z,0.97
2023-03-10T08:26:15.614Z,0.20
2023-03-10T08:28:44.350Z,0.40
2023-03-10T08:31:16.752Z,0.23
2023-03-10T08:33:45.905Z,0.27
2023-03-10T08:36:16.949Z,0.40
2023-03-10T08:38:46.229Z,1.40
2023-03-10T08:41:17.909Z,0.73
2023-03-10T08:43:49.109Z,0.50
2023-03-10T08:46:20.130Z,0.80
2023-03-10T08:48:48.729Z,0.80
2023-03-10T08:51:16.931Z,0.40
2023-03-10T08:53:47.588Z,0.10
2023-03-10T08:56:17.456Z,0.20
2023-03-10T08:58:45.782Z,0.37
2023-03-10T09:01:15.627Z,0.30
2023-03-10T09:03:46.562Z,0.37
2023-03-10T09:06:15.184Z,0.23
2023-03-10T09:08:44.112Z,0.30
2023-03-10T09:11:18.509Z,0.30
2023-03-10T09:13:46.738Z,0.33
2023-03-10T09:16:15.485Z,0.17
2023-03-10T09:18:45.806Z,0.40
2023-03-10T09:21:16.326Z,0.37
2023-03-10T09:23:47.128Z,0.40
2023-03-10T09:26:16.043Z,0.30
2023-03-10T09:28:44.930Z,0.40
2023-03-10T09:31:19.011Z,0.20
2023-03-10T09:33:49.207Z,0.30
2023-03-10T09:36:17.593Z,0.40
2023-03-10T09:38:45.973Z,0.70
2023-03-10T09:41:46.157Z,0.30
2023-03-10T09:44:32.446Z,0.40
2023-03-10T09:47:27.559Z,0.30
2023-03-10T09:50:17.814Z,0.53
2023-03-10T09:52:48.868Z,0.60
2023-03-10T09:55:23.699Z,0.40
2023-03-10T09:57:57.127Z,0.30
2023-03-10T10:00:30.773Z,1.03
2023-03-10T10:03:08.876Z,0.80
2023-03-10T10:05:43.073Z,0.67
2023-03-10T10:08:22.523Z,0.60
2023-03-10T10:10:54.840Z,0.53
2023-03-10T10:13:27.956Z,0.30
2023-03-10T10:16:21.382Z,0.50
2023-03-10T10:19:01.099Z,0.50
2023-03-10T10:21:43.353Z,0.60
2023-03-10T10:24:12.233Z,0.40
2023-03-10T10:26:40.260Z,0.43
2023-03-10T10:29:18.496Z,0.50
2023-03-10T10:32:06.572Z,0.40
2023-03-10T10:34:35.878Z,0.80
2023-03-10T10:37:29.767Z,0.40
2023-03-10T10:40:00.240Z,0.80
2023-03-10T10:42:31.052Z,0.23
2023-03-10T10:45:02.344Z,0.30
2023-03-10T10:47:33.292Z,0.40
2023-03-10T10:50:19.668Z,0.33
2023-03-10T10:52:52.962Z,0.30
2023-03-10T10:55:29.740Z,0.40
2023-03-10T10:58:01.888Z,0.77
2023-03-10T11:00:33.921Z,0.63
2023-03-10T11:03:02.463Z,0.60
2023-03-10T11:05:37.602Z,0.53
2023-03-10T11:08:37.528Z,0.43
2023-03-10T11:11:25.395Z,0.83
2023-03-10T11:14:16.080Z,0.60
2023-03-10T11:16:53.882Z,0.43
2023-03-10T11:19:33.018Z,0.40
2023-03-10T11:22:08.196Z,0.90
2023-03-10T11:24:47.762Z,0.57
2023-03-10T11:27:26.578Z,0.67
2023-03-10T11:30:06.058Z,0.57
2023-03-10T11:32:48.804Z,0.40
2023-03-10T11:35:27.272Z,0.57
2023-03-10T11:38:11.422Z,0.33
2023-03-10T11:40:47.811Z,0.30
2023-03-10T11:43:31.562Z,0.20
2023-03-10T11:46:08.111Z,0.40
2023-03-10T11:48:56.017Z,0.87
2023-03-10T11:51:33.649Z,0.50
2023-03-10T11:54:05.794Z,0.30
2023-03-10T11:56:35.255Z,0.33
2023-03-10T11:59:10.801Z,0.40
2023-03-10T12:01:43.228Z,0.20
2023-03-10T12:04:17.525Z,0.30
2023-03-10T12:06:52.132Z,0.20
2023-03-10T12:09:34.219Z,0.20
2023-03-10T12:12:06.245Z,0.40
2023-03-10T12:14:36.665Z,0.23
2023-03-10T12:17:06.402Z,0.30
2023-03-10T12:19:56.062Z,0.30
2023-03-10T12:22:26.081Z,0.20
2023-03-10T12:24:54.286Z,0.20
2023-03-10T12:27:23.869Z,0.20
2023-03-10T12:29:51.958Z,0.10
2023-03-10T12:32:47.310Z,0.10
2023-03-10T12:35:47.697Z,0.33
2023-03-10T12:38:53.908Z,0.10
2023-03-10T12:41:45.912Z,0.40
2023-03-10T12:44:55.775Z,0.17
2023-03-10T12:47:37.369Z,0.30
2023-03-10T12:50:22.673Z,0.20
2023-03-10T12:52:59.100Z,0.30
2023-03-10T12:55:29.081Z,0.40
2023-03-10T12:58:14.637Z,0.57
2023-03-10T13:00:51.468Z,1.30
2023-03-10T13:03:29.001Z,0.60
2023-03-10T13:06:03.833Z,0.30
2023-03-10T13:08:42.796Z,0.20
2023-03-10T13:11:31.696Z,0.10
2023-03-10T13:14:04.909Z,0.10
2023-03-10T13:16:36.568Z,0.27
2023-03-10T13:19:05.615Z,0.10
2023-03-10T13:21:36.053Z,0.10
2023-03-10T13:24:20.222Z,0.20
2023-03-10T13:26:48.381Z,0.13
2023-03-10T13:29:20.067Z,0.23
2023-03-10T13:31:56.341Z,0.13
2023-03-10T13:34:29.254Z,0.10
2023-03-10T13:37:05.373Z,0.20
2023-03-10T13:39:33.713Z,0.20
2023-03-10T13:42:04.038Z,0.27
2023-03-10T13:44:38.615Z,0.30
2023-03-10T13:47:18.336Z,0.10
2023-03-10T13:49:50.827Z,0.10
2023-03-10T13:52:22.469Z,0.10
2023-03-10T13:54:51.157Z,0.07
2023-03-10T13:57:26.257Z,0.20
2023-03-10T13:59:57.805Z,0.00
2023-03-10T14:02:31.672Z,0.30
2023-03-10T14:05:01.431Z,0.23
2023-03-10T14:07:32.883Z,0.10
2023-03-10T14:10:20.192Z,0.10
2023-03-10T14:12:51.708Z,0.20
2023-03-10T14:15:25.865Z,0.00
2023-03-10T14:18:20.422Z,0.00
2023-03-10T14:20:49.329Z,0.00
2023-03-10T14:23:32.379Z,0.13
2023-03-10T14:26:00.714Z,0.10
2023-03-10T14:28:32.341Z,0.10
2023-03-10T14:31:02.728Z,0.10
2023-03-10T14:33:32.262Z,0.10
2023-03-10T14:36:00.422Z,0.10
2023-03-10T14:38:28.856Z,0.10
2023-03-10T14:40:57.317Z,0.10
2023-03-10T14:43:28.696Z,0.40
2023-03-10T14:46:00.153Z,0.00
2023-03-10T14:48:35.436Z,0.10
2023-03-10T14:51:06.311Z,0.20
2023-03-10T14:53:34.797Z,0.30
2023-03-10T14:56:04.363Z,0.17
2023-03-10T14:58:35.604Z,0.10
2023-03-10T15:01:03.879Z,0.07
2023-03-10T15:03:33.378Z,0.00
2023-03-10T15:06:01.771Z,0.00
2023-03-10T15:08:30.839Z,0.20
2023-03-10T15:10:59.141Z,0.00
2023-03-10T15:13:27.215Z,0.10
2023-03-10T15:15:56.069Z,0.20
2023-03-10T15:18:26.969Z,0.10
2023-03-10T15:20:59.012Z,0.07
2023-03-10T15:23:28.268Z,0.10
2023-03-10T15:25:57.249Z,0.10
2023-03-10T15:28:25.561Z,0.10
2023-03-10T15:30:54.954Z,0.20
2023-03-10T15:33:23.184Z,0.30
2023-03-10T15:35:51.306Z,0.20
2023-03-10T15:38:21.052Z,0.20
2023-03-10T15:40:49.249Z,0.40
2023-03-10T15:43:17.330Z,0.20
2023-03-10T15:45:49.202Z,0.30
2023-03-10T15:48:18.318Z,0.40
2023-03-10T15:50:47.903Z,0.40
2023-03-10T15:53:16.160Z,0.37
2023-03-10T15:55:45.764Z,0.93
2023-03-10T15:58:13.912Z,0.90
2023-03-10T16:00:43.826Z,1.70
2023-03-10T16:03:12.267Z,0.70
2023-03-10T16:05:49.081Z,0.87
2023-03-10T16:08:18.987Z,0.50
2023-03-10T16:10:54.313Z,0.80
2023-03-10T16:13:23.773Z,1.17
2023-03-10T16:15:53.318Z,1.00
2023-03-10T16:18:25.748Z,0.70
2023-03-10T16:20:58.531Z,0.60
2023-03-10T16:23:27.377Z,0.70
2023-03-10T16:26:13.113Z,1.07
2023-03-10T16:28:44.349Z,0.60
2023-03-10T16:31:17.533Z,0.67
2023-03-10T16:33:47.975Z,1.17
2023-03-10T16:36:19.076Z,0.50
2023-03-10T16:38:47.664Z,0.90
2023-03-10T16:41:17.811Z,0.97
2023-03-10T16:43:46.397Z,0.90
2023-03-10T16:46:17.567Z,0.70
2023-03-10T16:48:48.524Z,0.80
2023-03-10T16:51:25.589Z,0.83
2023-03-10T16:53:56.204Z,0.83
2023-03-10T16:56:27.652Z,0.70
2023-03-10T16:58:56.795Z,0.67
2023-03-10T17:01:25.730Z,0.60
2023-03-10T17:03:54.919Z,0.90
2023-03-10T17:06:26.667Z,0.90
2023-03-10T17:08:56.249Z,0.80
2023-03-10T17:11:28.560Z,0.90
2023-03-10T17:14:00.060Z,0.67
2023-03-10T17:16:31.124Z,0.93
2023-03-10T17:19:01.549Z,0.90
2023-03-10T17:21:33.281Z,1.23
2023-03-10T17:24:01.454Z,0.87
2023-03-10T17:26:31.354Z,0.73
2023-03-10T17:28:59.561Z,1.20
2023-03-10T17:31:29.947Z,1.03
2023-03-10T17:34:00.434Z,1.30
2023-03-10T17:36:29.812Z,0.60
2023-03-10T17:39:00.740Z,1.23
2023-03-10T17:41:31.429Z,1.20
2023-03-10T17:43:59.907Z,1.10
2023-03-10T17:46:30.436Z,1.13
2023-03-10T17:49:00.275Z,4.30
2023-03-10T17:51:31.670Z,4.63
2023-03-10T17:54:03.039Z,7.37
2023-03-10T17:56:33.231Z,4.40
2023-03-10T17:59:01.547Z,4.83
2023-03-10T18:01:32.982Z,2.77
2023-03-10T18:04:02.356Z,1.50
2023-03-10T18:06:33.535Z,1.63
2023-03-10T18:09:05.550Z,1.10
2023-03-10T18:11:36.089Z,1.07
2023-03-10T18:14:04.779Z,0.60
2023-03-10T18:16:36.842Z,1.00
2023-03-10T18:19:05.449Z,1.20
2023-03-10T18:21:33.809Z,1.10
2023-03-10T18:24:02.310Z,0.70
2023-03-10T18:26:31.348Z,0.80
2023-03-10T18:29:01.510Z,0.80
2023-03-10T18:31:32.678Z,0.87
2023-03-10T18:34:03.010Z,1.10
2023-03-10T18:36:32.952Z,0.70
2023-03-10T18:39:02.377Z,0.70
2023-03-10T18:41:32.312Z,1.03
2023-03-10T18:44:02.013Z,0.73
2023-03-10T18:46:30.544Z,1.37
2023-03-10T18:48:58.850Z,1.07
2023-03-10T18:51:28.781Z,1.00
2023-03-10T18:53:57.135Z,1.10
2023-03-10T18:56:28.837Z,1.20
2023-03-10T18:58:58.064Z,1.23
2023-03-10T19:01:27.732Z,0.90
2023-03-10T19:03:55.917Z,1.13
2023-03-10T19:06:24.287Z,0.97
2023-03-10T19:08:53.674Z,1.17
2023-03-10T19:11:24.148Z,1.23
2023-03-10T19:13:52.906Z,1.03
2023-03-10T19:16:22.456Z,1.43
2023-03-10T19:18:51.992Z,1.33
2023-03-10T19:21:21.969Z,1.20
2023-03-10T19:23:51.176Z,1.63
2023-03-10T19:26:19.781Z,1.43
2023-03-10T19:28:47.910Z,1.60
2023-03-10T19:31:17.385Z,1.60
2023-03-10T19:33:45.766Z,1.53
2023-03-10T19:36:16.478Z,1.03
2023-03-10T19:38:46.230Z,1.43
2023-03-10T19:41:16.432Z,1.07
2023-03-10T19:43:45.547Z,1.10
2023-03-10T19:46:16.107Z,0.80
2023-03-10T19:48:44.918Z,1.10
2023-03-10T19:51:22.251Z,1.37
2023-03-10T19:53:52.809Z,1.20
2023-03-10T19:56:22.438Z,0.80
2023-03-10T19:58:51.230Z,1.10
2023-03-10T20:01:24.570Z,0.80
2023-03-10T20:03:53.370Z,1.13
2023-03-10T20:06:23.766Z,1.10
2023-03-10T20:08:52.597Z,0.90
2023-03-10T20:11:23.086Z,1.07
2023-03-10T20:13:54.840Z,1.00
2023-03-10T20:16:24.111Z,1.00
2023-03-10T20:18:53.240Z,0.80
2023-03-10T20:21:23.218Z,1.10
2023-03-10T20:23:51.550Z,0.80
2023-03-10T20:26:20.269Z,0.80
2023-03-10T20:28:50.604Z,0.90
2023-03-10T20:31:21.361Z,0.80
2023-03-10T20:33:50.430Z,0.70
2023-03-10T20:36:18.604Z,1.00
2023-03-10T20:38:48.841Z,1.20
2023-03-10T20:41:19.499Z,0.90
2023-03-10T20:43:49.099Z,0.97
2023-03-10T20:46:19.180Z,0.40
2023-03-10T20:48:49.651Z,0.60
2023-03-10T20:51:19.372Z,0.83
2023-03-10T20:53:49.007Z,0.80
2023-03-10T20:56:17.500Z,0.63
2023-03-10T20:58:45.693Z,0.93
2023-03-10T21:01:19.031Z,0.77
2023-03-10T21:06:20.711Z,0.90
2023-03-10T21:08:50.674Z,0.87
2023-03-10T21:11:19.984Z,1.00
2023-03-10T21:13:48.026Z,0.60
2023-03-10T21:16:16.125Z,0.83
2023-03-10T21:18:44.217Z,0.87
2023-03-10T21:21:13.822Z,1.10
2023-03-10T21:23:42.980Z,1.10
2023-03-10T21:26:14.598Z,1.00
2023-03-10T21:28:43.406Z,0.73
2023-03-10T21:31:12.113Z,0.70
2023-03-10T21:33:41.713Z,0.70
2023-03-10T21:36:14.661Z,0.57
2023-03-10T21:38:43.227Z,0.70
2023-03-10T21:41:15.344Z,1.00
2023-03-10T21:43:43.550Z,0.80
2023-03-10T21:46:12.233Z,0.63
2023-03-10T21:48:40.827Z,1.00
2023-03-10T21:51:09.958Z,1.00
2023-03-10T21:53:38.130Z,0.87
2023-03-10T21:56:07.586Z,0.80
2023-03-10T21:58:37.566Z,0.73
2023-03-10T22:01:07.681Z,0.97
2023-03-10T22:03:36.479Z,0.63
2023-03-10T22:06:05.127Z,0.87
2023-03-10T22:08:33.625Z,0.90
2023-03-10T22:11:02.247Z,0.83
2023-03-10T22:13:30.561Z,0.50
2023-03-10T22:16:00.939Z,0.90
2023-03-10T22:18:29.357Z,0.67
2023-03-10T22:20:57.685Z,0.90
2023-03-10T22:23:25.727Z,0.67
2023-03-10T22:25:53.841Z,0.50
2023-03-10T22:28:22.207Z,0.80
2023-03-10T22:30:50.374Z,1.07
2023-03-10T22:33:19.865Z,1.10
2023-03-10T22:35:52.029Z,0.60
2023-03-10T22:38:20.922Z,0.93
2023-03-10T22:40:49.497Z,0.90
2023-03-10T22:43:18.152Z,0.83
2023-03-10T22:45:46.725Z,0.90
2023-03-10T22:48:14.741Z,0.80
2023-03-10T22:50:46.622Z,0.80
2023-03-10T22:53:17.464Z,1.00
2023-03-10T22:55:46.491Z,0.70
2023-03-10T22:58:16.182Z,0.80
2023-03-10T23:00:46.240Z,0.60
2023-03-10T23:03:15.337Z,0.73
2023-03-10T23:05:45.234Z,0.90
2023-03-10T23:08:14.484Z,0.73
2023-03-10T23:10:43.508Z,0.80
2023-03-10T23:13:15.641Z,0.70
2023-03-10T23:15:44.835Z,0.60
2023-03-10T23:18:13.070Z,0.80
2023-03-10T23:20:47.811Z,0.40
2023-03-10T23:23:18.178Z,0.60
2023-03-10T23:25:50.875Z,0.83
2023-03-10T23:28:21.632Z,0.87
2023-03-10T23:30:51.291Z,0.60
2023-03-10T23:33:21.591Z,0.47
2023-03-10T23:35:54.102Z,0.63
2023-03-10T23:38:24.572Z,0.80
2023-03-10T23:40:53.586Z,0.60
2023-03-10T23:43:21.663Z,0.73
2023-03-10T23:45:49.965Z,0.90
2023-03-10T23:48:19.848Z,0.60
2023-03-10T23:50:50.285Z,0.43
2023-03-10T23:53:20.622Z,0.60
2023-03-10T23:55:49.218Z,0.53
2023-03-10T23:58:21.116Z,0.53
